Green Ice — C6SO4 — position and weather

sailwx.info

Track history (hours):
 
Tides and Currents Weather Stations Pressure Air Temp Water Temp Dewpoint Dewpoint Depression Visibility Wind Speed Wind Dir Waves Ship Positions

Green Ice

Last reported at 2014-Nov-23 10:30 UTC. Time now 2014-Nov-25 20:51 UTC.
Position N 59°14' E 005°21'.

Length 86 m; draft 5.7 m.

Type: Cargo ship. MMSI: 311411000.

Date/timePositionNaut miles runAvg speedWind from/ knotsBaromVisibWave heightAir tempDewpointWater temp
2014-Nov-23 10:30N 59°14' E 005°21'1212.6
2014-Nov-23 09:33N 59°04' E 005°33'1010.3
2014-Nov-23 08:33N 58°57' E 005°47'5 4.5
2014-Nov-23 07:34N 58°52' E 005°45'0 0.0
2014-Nov-23 06:33N 58°52' E 005°45'0 0.0
2014-Nov-23 05:33N 58°52' E 005°45'0 0.0
2014-Nov-23 04:33N 58°52' E 005°45'0 0.0
2014-Nov-23 03:33N 58°52' E 005°45'8 8.1
2014-Nov-23 02:33N 59°00' E 005°48'8 7.7
2014-Nov-23 01:33N 58°60' E 005°33'1312.6
2014-Nov-23 00:33N 58°48' E 005°25'1413.4
2014-Nov-22 23:32N 58°35' E 005°33'1313.7
2014-Nov-22 22:33N 58°24' E 005°49'1312.8
2014-Nov-22 21:33N 58°16' E 006°07'1211.8
2014-Nov-22 20:33N 58°07' E 006°23'54 3.6
2014-Nov-22 05:31N 58°04' E 008°05'8 8.7
2014-Nov-22 04:33N 58°07' E 008°20'1111.3
2014-Nov-22 03:33N 58°13' E 008°38'47 1.4
2014-Nov-20 18:07N 58°28' E 010°03'813.1
2014-Nov-20 17:31N 58°20' E 010°02'18710.3
2014-Nov-19 23:24N 55°33' E 007°24'1213.9
2014-Nov-19 22:33N 55°22' E 007°29'1413.8
2014-Nov-19 21:33N 55°09' E 007°36'1513.5
2014-Nov-19 20:26N 54°54' E 007°44'1213.4
2014-Nov-19 19:34N 54°43' E 007°49'1312.9
2014-Nov-19 18:33N 54°31' E 007°54'1312.7
2014-Nov-19 17:34N 54°18' E 007°59'1313.2
2014-Nov-19 16:33N 54°05' E 008°05'1211.6
2014-Nov-19 15:33N 53°60' E 008°22'1514.7
2014-Nov-19 14:33N 53°52' E 008°43'0 0.4
2014-Nov-19 13:33N 53°52' E 008°43'0 0.0
2014-Nov-19 12:33N 53°52' E 008°43'0 0.0
2014-Nov-19 11:33N 53°52' E 008°43'0 0.0
2014-Nov-19 10:33N 53°52' E 008°43'0 0.0
2014-Nov-19 09:33N 53°52' E 008°43'0 0.0
2014-Nov-19 08:33N 53°52' E 008°43'0 0.0
2014-Nov-19 07:33N 53°52' E 008°43'0 0.0
2014-Nov-19 06:33N 53°52' E 008°43'0 0.0
2014-Nov-19 05:33N 53°52' E 008°43'0 0.0
2014-Nov-19 04:33N 53°52' E 008°43'6 6.5
2014-Nov-19 03:33N 53°57' E 008°37'1111.1
2014-Nov-19 02:34N 53°60' E 008°18'1312.4
2014-Nov-19 01:33N 53°58' E 007°57'5911.2
2014-Nov-18 20:18N 53°37' E 006°24'811.0
2014-Nov-18 19:33N 53°35' E 006°37'1110.8
2014-Nov-18 18:34N 53°27' E 006°50'0 0.1
2014-Nov-18 17:33N 53°27' E 006°49'0 0.0
2014-Nov-18 16:34N 53°27' E 006°49'0 0.0
2014-Nov-18 15:34N 53°27' E 006°49'0 0.0
2014-Nov-18 14:34N 53°27' E 006°49'0 0.0
2014-Nov-18 13:34N 53°27' E 006°49'0 0.0
2014-Nov-18 12:33N 53°27' E 006°49'0 0.0
2014-Nov-18 11:33N 53°27' E 006°49'0 0.0
2014-Nov-18 10:34N 53°27' E 006°49'0 0.0
2014-Nov-18 09:33N 53°27' E 006°49'0 0.0
2014-Nov-18 08:34N 53°27' E 006°49'0 0.0
2014-Nov-18 07:33N 53°27' E 006°49'0 0.0
2014-Nov-18 06:33N 53°27' E 006°49'0 0.0
2014-Nov-18 05:34N 53°27' E 006°49'0 0.0
2014-Nov-18 04:34N 53°27' E 006°49'6 5.6
2014-Nov-18 03:34N 53°32' E 006°44'1312.5
2014-Nov-18 02:33N 53°37' E 006°25'296 9.1
2014-Nov-16 18:03N 58°31' E 005°28'1711.0
2014-Nov-16 16:33N 58°48' E 005°25'1212.3
2014-Nov-16 15:34N 58°59' E 005°33'8 7.8
2014-Nov-16 14:34N 58°60' E 005°48'8 7.8
2014-Nov-16 13:34N 58°52' E 005°45'0 0.0
2014-Nov-16 12:33N 58°52' E 005°45'7 6.7
2014-Nov-16 11:33N 58°59' E 005°48'1010.3
2014-Nov-16 10:34N 59°05' E 005°32'9 9.0
2014-Nov-16 09:34N 59°09' E 005°16'0 0.0
2014-Nov-16 08:34N 59°09' E 005°16'3 3.3
2014-Nov-16 07:34N 59°11' E 005°20'9 9.0
2014-Nov-16 06:33N 59°20' E 005°18'0 0.0
2014-Nov-16 05:34N 59°20' E 005°18'0 0.0
2014-Nov-16 04:34N 59°20' E 005°18'0 0.0
2014-Nov-16 03:33N 59°20' E 005°18'0 0.0
2014-Nov-16 02:33N 59°20' E 005°18'0 0.0
2014-Nov-16 01:32N 59°20' E 005°18'1 1.3
2014-Nov-16 00:34N 59°22' E 005°18'289 7.0
2014-Nov-14 07:28N 63°47' E 009°17'71 6.3
2014-Nov-13 20:10N 64°43' E 010°56'813.0
2014-Nov-13 19:34N 64°49' E 011°09'1211.6
2014-Nov-13 18:33N 64°59' E 011°25'1512.1
2014-Nov-13 17:21N 65°09' E 011°50'5812.0
2014-Nov-13 12:29N 66°04' E 012°38'1512.7
2014-Nov-13 11:18N 66°17' E 012°55'912.2
2014-Nov-13 10:33N 66°26' E 012°59'  
Track history (hours):
 
Tides and Currents Weather Stations Pressure Air Temp Water Temp Dewpoint Dewpoint Depression Visibility Wind Speed Wind Dir Waves Ship Positions

Green Ice

Last reported at 2014-Nov-23 10:30 UTC. Time now 2014-Nov-25 20:51 UTC.
Position N 59°14' E 005°21'.

Length 86 m; draft 5.7 m.

Type: Cargo ship. MMSI: 311411000.

Date/timePositionNaut miles runAvg speedWind from/ knotsBaromVisibWave heightAir tempDewpointWater temp
2014-Nov-23 10:30N 59°14' E 005°21'1212.6
2014-Nov-23 09:33N 59°04' E 005°33'1010.3
2014-Nov-23 08:33N 58°57' E 005°47'5 4.5
2014-Nov-23 07:34N 58°52' E 005°45'0 0.0
2014-Nov-23 06:33N 58°52' E 005°45'0 0.0
2014-Nov-23 05:33N 58°52' E 005°45'0 0.0
2014-Nov-23 04:33N 58°52' E 005°45'0 0.0
2014-Nov-23 03:33N 58°52' E 005°45'8 8.1
2014-Nov-23 02:33N 59°00' E 005°48'8 7.7
2014-Nov-23 01:33N 58°60' E 005°33'1312.6
2014-Nov-23 00:33N 58°48' E 005°25'1413.4
2014-Nov-22 23:32N 58°35' E 005°33'1313.7
2014-Nov-22 22:33N 58°24' E 005°49'1312.8
2014-Nov-22 21:33N 58°16' E 006°07'1211.8
2014-Nov-22 20:33N 58°07' E 006°23'54 3.6
2014-Nov-22 05:31N 58°04' E 008°05'8 8.7
2014-Nov-22 04:33N 58°07' E 008°20'1111.3
2014-Nov-22 03:33N 58°13' E 008°38'47 1.4
2014-Nov-20 18:07N 58°28' E 010°03'813.1
2014-Nov-20 17:31N 58°20' E 010°02'18710.3
2014-Nov-19 23:24N 55°33' E 007°24'1213.9
2014-Nov-19 22:33N 55°22' E 007°29'1413.8
2014-Nov-19 21:33N 55°09' E 007°36'1513.5
2014-Nov-19 20:26N 54°54' E 007°44'1213.4
2014-Nov-19 19:34N 54°43' E 007°49'1312.9
2014-Nov-19 18:33N 54°31' E 007°54'1312.7
2014-Nov-19 17:34N 54°18' E 007°59'1313.2
2014-Nov-19 16:33N 54°05' E 008°05'1211.6
2014-Nov-19 15:33N 53°60' E 008°22'1514.7
2014-Nov-19 14:33N 53°52' E 008°43'0 0.4
2014-Nov-19 13:33N 53°52' E 008°43'0 0.0
2014-Nov-19 12:33N 53°52' E 008°43'0 0.0
2014-Nov-19 11:33N 53°52' E 008°43'0 0.0
2014-Nov-19 10:33N 53°52' E 008°43'0 0.0
2014-Nov-19 09:33N 53°52' E 008°43'0 0.0
2014-Nov-19 08:33N 53°52' E 008°43'0 0.0
2014-Nov-19 07:33N 53°52' E 008°43'0 0.0
2014-Nov-19 06:33N 53°52' E 008°43'0 0.0
2014-Nov-19 05:33N 53°52' E 008°43'0 0.0
2014-Nov-19 04:33N 53°52' E 008°43'6 6.5
2014-Nov-19 03:33N 53°57' E 008°37'1111.1
2014-Nov-19 02:34N 53°60' E 008°18'1312.4
2014-Nov-19 01:33N 53°58' E 007°57'5911.2
2014-Nov-18 20:18N 53°37' E 006°24'811.0
2014-Nov-18 19:33N 53°35' E 006°37'1110.8
2014-Nov-18 18:34N 53°27' E 006°50'0 0.1
2014-Nov-18 17:33N 53°27' E 006°49'0 0.0
2014-Nov-18 16:34N 53°27' E 006°49'0 0.0
2014-Nov-18 15:34N 53°27' E 006°49'0 0.0
2014-Nov-18 14:34N 53°27' E 006°49'0 0.0
2014-Nov-18 13:34N 53°27' E 006°49'0 0.0
2014-Nov-18 12:33N 53°27' E 006°49'0 0.0
2014-Nov-18 11:33N 53°27' E 006°49'0 0.0
2014-Nov-18 10:34N 53°27' E 006°49'0 0.0
2014-Nov-18 09:33N 53°27' E 006°49'0 0.0
2014-Nov-18 08:34N 53°27' E 006°49'0 0.0
2014-Nov-18 07:33N 53°27' E 006°49'0 0.0
2014-Nov-18 06:33N 53°27' E 006°49'0 0.0
2014-Nov-18 05:34N 53°27' E 006°49'0 0.0
2014-Nov-18 04:34N 53°27' E 006°49'6 5.6
2014-Nov-18 03:34N 53°32' E 006°44'1312.5
2014-Nov-18 02:33N 53°37' E 006°25'296 9.1
2014-Nov-16 18:03N 58°31' E 005°28'1711.0
2014-Nov-16 16:33N 58°48' E 005°25'1212.3
2014-Nov-16 15:34N 58°59' E 005°33'8 7.8
2014-Nov-16 14:34N 58°60' E 005°48'8 7.8
2014-Nov-16 13:34N 58°52' E 005°45'0 0.0
2014-Nov-16 12:33N 58°52' E 005°45'7 6.7
2014-Nov-16 11:33N 58°59' E 005°48'1010.3
2014-Nov-16 10:34N 59°05' E 005°32'9 9.0
2014-Nov-16 09:34N 59°09' E 005°16'0 0.0
2014-Nov-16 08:34N 59°09' E 005°16'3 3.3
2014-Nov-16 07:34N 59°11' E 005°20'9 9.0
2014-Nov-16 06:33N 59°20' E 005°18'0 0.0
2014-Nov-16 05:34N 59°20' E 005°18'0 0.0
2014-Nov-16 04:34N 59°20' E 005°18'0 0.0
2014-Nov-16 03:33N 59°20' E 005°18'0 0.0
2014-Nov-16 02:33N 59°20' E 005°18'0 0.0
2014-Nov-16 01:32N 59°20' E 005°18'1 1.3
2014-Nov-16 00:34N 59°22' E 005°18'289 7.0
2014-Nov-14 07:28N 63°47' E 009°17'71 6.3
2014-Nov-13 20:10N 64°43' E 010°56'813.0
2014-Nov-13 19:34N 64°49' E 011°09'1211.6
2014-Nov-13 18:33N 64°59' E 011°25'1512.1
2014-Nov-13 17:21N 65°09' E 011°50'5812.0
2014-Nov-13 12:29N 66°04' E 012°38'1512.7
2014-Nov-13 11:18N 66°17' E 012°55'912.2
2014-Nov-13 10:33N 66°26' E 012°59'  

Dump ship's entire track history